sensor_id;sensor_type;location;lat;lon;timestamp;pressure;altitude;pressure_sealevel;temperature;humidity
6532;BME280;3299;42.004;24.868;2023-05-24T00:00:23;97906.06;;;16.31;84.64
6532;BME280;3299;42.004;24.868;2023-05-24T00:02:48;97903.78;;;16.28;84.24
6532;BME280;3299;42.004;24.868;2023-05-24T00:05:13;97947.47;;;16.61;84.68
6532;BME280;3299;42.004;24.868;2023-05-24T00:07:41;97894.31;;;16.27;84.72
6532;BME280;3299;42.004;24.868;2023-05-24T00:10:06;97936.91;;;16.45;85.13
6532;BME280;3299;42.004;24.868;2023-05-24T00:12:32;97949.13;;;16.44;85.86
6532;BME280;3299;42.004;24.868;2023-05-24T00:14:58;97915.13;;;16.19;85.79
6532;BME280;3299;42.004;24.868;2023-05-24T00:17:24;97901.13;;;16.02;84.91
6532;BME280;3299;42.004;24.868;2023-05-24T00:19:49;97940.50;;;16.09;85.55
6532;BME280;3299;42.004;24.868;2023-05-24T00:22:16;97934.38;;;16.18;84.62
6532;BME280;3299;42.004;24.868;2023-05-24T00:24:45;97874.38;;;15.83;85.01
6532;BME280;3299;42.004;24.868;2023-05-24T00:27:10;97858.59;;;15.84;83.64
6532;BME280;3299;42.004;24.868;2023-05-24T00:29:36;97887.69;;;16.15;82.96
6532;BME280;3299;42.004;24.868;2023-05-24T00:32:01;97910.47;;;16.30;83.63
6532;BME280;3299;42.004;24.868;2023-05-24T00:34:26;97857.75;;;16.01;84.64
6532;BME280;3299;42.004;24.868;2023-05-24T00:36:52;97922.81;;;16.63;84.27
6532;BME280;3299;42.004;24.868;2023-05-24T00:39:17;97921.34;;;16.61;83.43
6532;BME280;3299;42.004;24.868;2023-05-24T00:41:43;97916.91;;;16.61;83.37
6532;BME280;3299;42.004;24.868;2023-05-24T00:44:08;97917.75;;;16.62;83.38
6532;BME280;3299;42.004;24.868;2023-05-24T00:46:35;97860.66;;;16.24;82.85
6532;BME280;3299;42.004;24.868;2023-05-24T00:49:01;97910.47;;;16.48;83.26
6532;BME280;3299;42.004;24.868;2023-05-24T00:51:28;97841.63;;;16.06;83.52
6532;BME280;3299;42.004;24.868;2023-05-24T00:53:54;97913.56;;;16.51;83.70
6532;BME280;3299;42.004;24.868;2023-05-24T00:56:20;97906.56;;;16.52;83.36
6532;BME280;3299;42.004;24.868;2023-05-24T00:58:45;97837.34;;;15.97;82.73
6532;BME280;3299;42.004;24.868;2023-05-24T01:01:11;97886.13;;;16.22;83.40
6532;BME280;3299;42.004;24.868;2023-05-24T01:03:37;97870.09;;;16.17;83.42
6532;BME280;3299;42.004;24.868;2023-05-24T01:06:05;97883.00;;;16.18;83.78
6532;BME280;3299;42.004;24.868;2023-05-24T01:13:47;97902.59;;;16.40;84.01
6532;BME280;3299;42.004;24.868;2023-05-24T01:16:20;97902.03;;;16.36;84.69
6532;BME280;3299;42.004;24.868;2023-05-24T01:18:50;97833.53;;;15.91;83.70
6532;BME280;3299;42.004;24.868;2023-05-24T01:27:12;97921.06;;;16.29;85.88
6532;BME280;3299;42.004;24.868;2023-05-24T01:29:39;97901.78;;;16.22;84.99
6532;BME280;3299;42.004;24.868;2023-05-24T01:32:06;97926.13;;;16.48;84.07
6532;BME280;3299;42.004;24.868;2023-05-24T01:34:31;97892.13;;;16.40;82.41
6532;BME280;3299;42.004;24.868;2023-05-24T01:36:56;97919.38;;;16.63;82.60
6532;BME280;3299;42.004;24.868;2023-05-24T01:39:25;97876.47;;;16.40;82.22
6532;BME280;3299;42.004;24.868;2023-05-24T01:42:08;97840.50;;;16.08;82.91
6532;BME280;3299;42.004;24.868;2023-05-24T01:47:28;97926.56;;;16.61;82.70
6532;BME280;3299;42.004;24.868;2023-05-24T01:50:02;97825.84;;;16.15;82.61
6532;BME280;3299;42.004;24.868;2023-05-24T01:52:32;97879.91;;;16.23;83.80
6532;BME280;3299;42.004;24.868;2023-05-24T01:54:59;97870.06;;;15.91;85.77
6532;BME280;3299;42.004;24.868;2023-05-24T01:57:25;97892.13;;;15.97;85.95
6532;BME280;3299;42.004;24.868;2023-05-24T01:59:52;97876.19;;;15.82;86.68
6532;BME280;3299;42.004;24.868;2023-05-24T02:02:18;97921.94;;;15.94;87.54
6532;BME280;3299;42.004;24.868;2023-05-24T02:04:44;97844.44;;;15.52;87.25
6532;BME280;3299;42.004;24.868;2023-05-24T02:07:10;97882.59;;;15.70;88.09
6532;BME280;3299;42.004;24.868;2023-05-24T02:09:35;97851.66;;;15.40;89.30
6532;BME280;3299;42.004;24.868;2023-05-24T02:12:01;97869.03;;;15.49;89.59
6532;BME280;3299;42.004;24.868;2023-05-24T02:14:26;97902.41;;;15.81;87.67
6532;BME280;3299;42.004;24.868;2023-05-24T02:16:52;97853.53;;;15.48;87.58
6532;BME280;3299;42.004;24.868;2023-05-24T02:19:23;97896.06;;;15.48;89.00
6532;BME280;3299;42.004;24.868;2023-05-24T02:21:49;97947.50;;;15.56;90.94
6532;BME280;3299;42.004;24.868;2023-05-24T02:24:15;97892.16;;;15.08;91.42
6532;BME280;3299;42.004;24.868;2023-05-24T02:26:42;97944.13;;;15.46;91.74
6532;BME280;3299;42.004;24.868;2023-05-24T02:29:08;97936.91;;;15.30;92.63
6532;BME280;3299;42.004;24.868;2023-05-24T02:31:33;97887.97;;;14.97;92.75
6532;BME280;3299;42.004;24.868;2023-05-24T02:33:59;97917.03;;;15.02;93.51
6532;BME280;3299;42.004;24.868;2023-05-24T02:36:24;97896.91;;;14.95;93.14
6532;BME280;3299;42.004;24.868;2023-05-24T02:38:50;97959.44;;;15.22;93.72
6532;BME280;3299;42.004;24.868;2023-05-24T02:41:16;97864.94;;;14.66;93.78
6532;BME280;3299;42.004;24.868;2023-05-24T02:43:46;97948.91;;;15.14;93.81
6532;BME280;3299;42.004;24.868;2023-05-24T02:46:12;97899.59;;;14.76;94.41
6532;BME280;3299;42.004;24.868;2023-05-24T02:48:38;97942.09;;;15.03;94.56
6532;BME280;3299;42.004;24.868;2023-05-24T02:51:03;97945.25;;;15.07;94.63
6532;BME280;3299;42.004;24.868;2023-05-24T02:53:29;97874.97;;;14.61;93.96
6532;BME280;3299;42.004;24.868;2023-05-24T02:55:55;97929.88;;;14.77;95.08
6532;BME280;3299;42.004;24.868;2023-05-24T02:58:21;97881.09;;;14.42;95.58
6532;BME280;3299;42.004;24.868;2023-05-24T03:00:47;97932.94;;;14.63;95.89
6532;BME280;3299;42.004;24.868;2023-05-24T03:03:12;97919.09;;;14.62;96.19
6532;BME280;3299;42.004;24.868;2023-05-24T03:05:38;97952.44;;;14.86;96.48
6532;BME280;3299;42.004;24.868;2023-05-24T03:08:03;97949.88;;;14.76;96.88
6532;BME280;3299;42.004;24.868;2023-05-24T03:10:28;97877.25;;;14.37;96.33
6532;BME280;3299;42.004;24.868;2023-05-24T03:12:54;97968.22;;;14.94;96.21
6532;BME280;3299;42.004;24.868;2023-05-24T03:15:20;97969.19;;;14.93;95.71
6532;BME280;3299;42.004;24.868;2023-05-24T03:17:45;97940.88;;;14.71;96.44
6532;BME280;3299;42.004;24.868;2023-05-24T03:20:11;97887.25;;;14.32;98.00
6532;BME280;3299;42.004;24.868;2023-05-24T03:22:37;97876.84;;;14.32;97.56
6532;BME280;3299;42.004;24.868;2023-05-24T03:25:02;97860.03;;;14.07;98.21
6532;BME280;3299;42.004;24.868;2023-05-24T03:27:28;97959.25;;;14.60;98.91
6532;BME280;3299;42.004;24.868;2023-05-24T03:29:53;97881.22;;;14.12;100.00
6532;BME280;3299;42.004;24.868;2023-05-24T03:32:18;97894.94;;;14.24;100.00
6532;BME280;3299;42.004;24.868;2023-05-24T03:34:44;97945.00;;;14.64;99.73
6532;BME280;3299;42.004;24.868;2023-05-24T03:37:09;97908.72;;;14.53;98.74
6532;BME280;3299;42.004;24.868;2023-05-24T03:39:35;97905.16;;;14.54;97.58
6532;BME280;3299;42.004;24.868;2023-05-24T03:42:00;97909.47;;;14.72;97.40
6532;BME280;3299;42.004;24.868;2023-05-24T03:44:25;97891.66;;;14.68;96.70
6532;BME280;3299;42.004;24.868;2023-05-24T03:46:51;97954.28;;;15.12;96.40
6532;BME280;3299;42.004;24.868;2023-05-24T03:49:16;97964.94;;;15.19;95.56
6532;BME280;3299;42.004;24.868;2023-05-24T03:51:42;97926.09;;;14.98;95.38
6532;BME280;3299;42.004;24.868;2023-05-24T03:54:08;97890.81;;;14.77;95.55
6532;BME280;3299;42.004;24.868;2023-05-24T03:56:33;97867.03;;;14.62;95.44
6532;BME280;3299;42.004;24.868;2023-05-24T03:58:58;97962.06;;;15.22;94.91
6532;BME280;3299;42.004;24.868;2023-05-24T04:01:28;97914.13;;;15.05;94.16
6532;BME280;3299;42.004;24.868;2023-05-24T04:03:56;97953.94;;;15.25;94.88
6532;BME280;3299;42.004;24.868;2023-05-24T04:06:22;97911.63;;;15.13;93.03
6532;BME280;3299;42.004;24.868;2023-05-24T04:08:56;97918.28;;;15.25;91.97
6532;BME280;3299;42.004;24.868;2023-05-24T04:11:22;97923.50;;;15.25;92.51
6532;BME280;3299;42.004;24.868;2023-05-24T04:13:48;97876.31;;;15.01;93.08
6532;BME280;3299;42.004;24.868;2023-05-24T04:16:17;97954.41;;;15.47;92.41
6532;BME280;3299;42.004;24.868;2023-05-24T04:18:42;97951.97;;;15.63;92.35
6532;BME280;3299;42.004;24.868;2023-05-24T04:21:09;97935.72;;;15.52;91.94
6532;BME280;3299;42.004;24.868;2023-05-24T04:23:35;97964.66;;;15.76;91.22
6532;BME280;3299;42.004;24.868;2023-05-24T04:26:00;97923.56;;;15.60;91.54
6532;BME280;3299;42.004;24.868;2023-05-24T04:28:25;97925.97;;;15.71;91.03
6532;BME280;3299;42.004;24.868;2023-05-24T04:30:51;97900.25;;;15.59;90.13
6532;BME280;3299;42.004;24.868;2023-05-24T04:33:16;97927.25;;;15.85;90.02
6532;BME280;3299;42.004;24.868;2023-05-24T04:35:42;97900.69;;;15.72;89.04
6532;BME280;3299;42.004;24.868;2023-05-24T04:38:08;97968.81;;;16.21;88.76
6532;BME280;3299;42.004;24.868;2023-05-24T04:40:36;97976.03;;;16.27;88.79
6532;BME280;3299;42.004;24.868;2023-05-24T04:43:02;97879.31;;;15.86;88.29
6532;BME280;3299;42.004;24.868;2023-05-24T04:45:28;97965.31;;;16.48;87.51
6532;BME280;3299;42.004;24.868;2023-05-24T04:47:55;97922.28;;;16.34;86.66
6532;BME280;3299;42.004;24.868;2023-05-24T04:50:20;97936.22;;;16.43;85.81
6532;BME280;3299;42.004;24.868;2023-05-24T04:52:45;97893.34;;;16.28;85.72
6532;BME280;3299;42.004;24.868;2023-05-24T04:55:11;97933.06;;;16.57;85.02
6532;BME280;3299;42.004;24.868;2023-05-24T04:57:36;97890.06;;;16.51;83.63
6532;BME280;3299;42.004;24.868;2023-05-24T05:00:02;97930.63;;;16.89;83.45
6532;BME280;3299;42.004;24.868;2023-05-24T05:02:29;97970.97;;;17.20;83.34
6532;BME280;3299;42.004;24.868;2023-05-24T05:04:55;97883.69;;;16.79;83.25
6532;BME280;3299;42.004;24.868;2023-05-24T05:07:20;97930.75;;;17.13;82.72
6532;BME280;3299;42.004;24.868;2023-05-24T05:09:46;97929.44;;;17.17;82.79
6532;BME280;3299;42.004;24.868;2023-05-24T05:12:11;97978.19;;;17.59;81.35
6532;BME280;3299;42.004;24.868;2023-05-24T05:14:37;97927.28;;;17.38;81.23
6532;BME280;3299;42.004;24.868;2023-05-24T05:17:03;97959.38;;;17.64;80.00
6532;BME280;3299;42.004;24.868;2023-05-24T05:19:29;97883.41;;;17.32;80.54
6532;BME280;3299;42.004;24.868;2023-05-24T05:21:55;97963.03;;;17.79;79.97
6532;BME280;3299;42.004;24.868;2023-05-24T05:24:20;97969.09;;;17.87;81.03
6532;BME280;3299;42.004;24.868;2023-05-24T05:26:46;97912.78;;;17.59;79.90
6532;BME280;3299;42.004;24.868;2023-05-24T05:29:11;97941.44;;;17.77;84.24
6532;BME280;3299;42.004;24.868;2023-05-24T05:31:36;97980.75;;;18.09;85.53
6532;BME280;3299;42.004;24.868;2023-05-24T05:34:03;97966.34;;;18.13;86.69
6532;BME280;3299;42.004;24.868;2023-05-24T05:36:32;97955.22;;;18.19;86.56
6532;BME280;3299;42.004;24.868;2023-05-24T05:38:57;97966.84;;;18.48;86.44
6532;BME280;3299;42.004;24.868;2023-05-24T05:41:22;98016.97;;;18.85;86.19
6532;BME280;3299;42.004;24.868;2023-05-24T05:43:48;98005.16;;;18.81;80.21
6532;BME280;3299;42.004;24.868;2023-05-24T05:46:13;97979.63;;;18.75;77.45
6532;BME280;3299;42.004;24.868;2023-05-24T05:48:40;97943.91;;;18.66;76.53
6532;BME280;3299;42.004;24.868;2023-05-24T05:51:05;98012.31;;;19.11;73.94
6532;BME280;3299;42.004;24.868;2023-05-24T05:53:33;98016.75;;;19.11;74.05
6532;BME280;3299;42.004;24.868;2023-05-24T05:55:58;97996.59;;;18.95;74.31
6532;BME280;3299;42.004;24.868;2023-05-24T05:58:24;97960.47;;;18.67;74.04
6532;BME280;3299;42.004;24.868;2023-05-24T06:00:50;97946.38;;;18.68;73.85
6532;BME280;3299;42.004;24.868;2023-05-24T06:03:15;97972.88;;;18.81;74.52
6532;BME280;3299;42.004;24.868;2023-05-24T06:05:41;98011.84;;;19.08;74.05
6532;BME280;3299;42.004;24.868;2023-05-24T06:08:06;98014.09;;;19.19;73.20
6532;BME280;3299;42.004;24.868;2023-05-24T06:10:31;97985.28;;;19.11;73.22
6532;BME280;3299;42.004;24.868;2023-05-24T06:12:57;98007.38;;;19.24;72.78
6532;BME280;3299;42.004;24.868;2023-05-24T06:15:22;98024.50;;;19.51;73.13
6532;BME280;3299;42.004;24.868;2023-05-24T06:17:49;98026.13;;;19.60;72.46
6532;BME280;3299;42.004;24.868;2023-05-24T06:20:15;97978.63;;;19.47;71.82
6532;BME280;3299;42.004;24.868;2023-05-24T06:22:41;97987.59;;;19.52;71.02
6532;BME280;3299;42.004;24.868;2023-05-24T06:25:07;97964.84;;;19.45;70.45
6532;BME280;3299;42.004;24.868;2023-05-24T06:27:33;98009.06;;;19.64;70.10
6532;BME280;3299;42.004;24.868;2023-05-24T06:29:58;97976.94;;;19.54;70.51
6532;BME280;3299;42.004;24.868;2023-05-24T06:32:24;97981.47;;;19.68;69.91
6532;BME280;3299;42.004;24.868;2023-05-24T06:34:49;97981.13;;;19.71;69.91
6532;BME280;3299;42.004;24.868;2023-05-24T06:37:14;98045.06;;;20.16;69.97
6532;BME280;3299;42.004;24.868;2023-05-24T06:39:40;98048.31;;;20.26;69.41
6532;BME280;3299;42.004;24.868;2023-05-24T06:42:06;98002.25;;;20.16;67.92
6532;BME280;3299;42.004;24.868;2023-05-24T06:44:31;98011.91;;;20.38;68.61
6532;BME280;3299;42.004;24.868;2023-05-24T06:47:02;98047.84;;;20.68;68.92
6532;BME280;3299;42.004;24.868;2023-05-24T06:49:28;98032.75;;;20.62;68.59
6532;BME280;3299;42.004;24.868;2023-05-24T06:51:53;97978.28;;;20.33;65.54
6532;BME280;3299;42.004;24.868;2023-05-24T06:54:19;97983.59;;;20.48;66.06
6532;BME280;3299;42.004;24.868;2023-05-24T06:56:44;98001.16;;;20.70;65.30
6532;BME280;3299;42.004;24.868;2023-05-24T06:59:10;97972.94;;;20.64;64.37
6532;BME280;3299;42.004;24.868;2023-05-24T07:01:36;97980.41;;;20.75;64.83
6532;BME280;3299;42.004;24.868;2023-05-24T07:04:04;97998.44;;;21.00;65.48
6532;BME280;3299;42.004;24.868;2023-05-24T07:06:30;98010.50;;;21.24;65.34
6532;BME280;3299;42.004;24.868;2023-05-24T07:08:57;97976.22;;;21.17;64.65
6532;BME280;3299;42.004;24.868;2023-05-24T07:11:23;98040.31;;;21.68;64.39
6532;BME280;3299;42.004;24.868;2023-05-24T07:13:49;97993.97;;;21.44;63.26
6532;BME280;3299;42.004;24.868;2023-05-24T07:16:14;97981.06;;;21.49;62.41
6532;BME280;3299;42.004;24.868;2023-05-24T07:18:40;98000.06;;;21.74;62.65
6532;BME280;3299;42.004;24.868;2023-05-24T07:21:06;98019.19;;;21.97;62.68
6532;BME280;3299;42.004;24.868;2023-05-24T07:23:31;98042.91;;;22.18;62.90
6532;BME280;3299;42.004;24.868;2023-05-24T07:25:56;97977.38;;;21.94;62.72
6532;BME280;3299;42.004;24.868;2023-05-24T07:28:22;97993.72;;;22.04;62.86
6532;BME280;3299;42.004;24.868;2023-05-24T07:30:47;97967.66;;;21.94;62.22
6532;BME280;3299;42.004;24.868;2023-05-24T07:33:13;98001.66;;;22.25;62.41
6532;BME280;3299;42.004;24.868;2023-05-24T07:35:38;98033.16;;;22.54;63.18
6532;BME280;3299;42.004;24.868;2023-05-24T07:38:04;97971.81;;;22.24;62.33
6532;BME280;3299;42.004;24.868;2023-05-24T07:40:30;98011.84;;;22.49;62.47
6532;BME280;3299;42.004;24.868;2023-05-24T07:42:55;97990.81;;;22.41;61.53
6532;BME280;3299;42.004;24.868;2023-05-24T07:45:20;98041.06;;;22.75;62.10
6532;BME280;3299;42.004;24.868;2023-05-24T07:47:46;98001.16;;;22.57;62.77
6532;BME280;3299;42.004;24.868;2023-05-24T07:50:11;98003.78;;;22.57;62.51
6532;BME280;3299;42.004;24.868;2023-05-24T07:52:37;97974.00;;;22.42;62.85
6532;BME280;3299;42.004;24.868;2023-05-24T07:55:03;98019.34;;;22.73;62.27
6532;BME280;3299;42.004;24.868;2023-05-24T07:57:29;97986.78;;;22.59;61.44
6532;BME280;3299;42.004;24.868;2023-05-24T07:59:54;98005.75;;;22.76;61.51
6532;BME280;3299;42.004;24.868;2023-05-24T08:02:20;98052.22;;;22.98;61.64
6532;BME280;3299;42.004;24.868;2023-05-24T08:04:45;98032.50;;;22.94;62.57
6532;BME280;3299;42.004;24.868;2023-05-24T08:07:11;98035.81;;;23.02;61.98
6532;BME280;3299;42.004;24.868;2023-05-24T08:09:36;97988.94;;;22.77;62.84
6532;BME280;3299;42.004;24.868;2023-05-24T08:12:05;97990.78;;;22.83;63.06
6532;BME280;3299;42.004;24.868;2023-05-24T08:14:31;98035.09;;;23.15;63.08
6532;BME280;3299;42.004;24.868;2023-05-24T08:16:56;98002.09;;;22.98;63.10
6532;BME280;3299;42.004;24.868;2023-05-24T08:19:22;98041.66;;;23.19;63.10
6532;BME280;3299;42.004;24.868;2023-05-24T08:21:48;98029.44;;;23.18;62.68
6532;BME280;3299;42.004;24.868;2023-05-24T08:24:14;98025.41;;;23.22;62.79
6532;BME280;3299;42.004;24.868;2023-05-24T08:26:39;97972.44;;;22.96;61.90
6532;BME280;3299;42.004;24.868;2023-05-24T08:29:05;98001.06;;;23.20;62.01
6532;BME280;3299;42.004;24.868;2023-05-24T08:31:30;98043.69;;;23.51;63.02
6532;BME280;3299;42.004;24.868;2023-05-24T08:34:00;98007.41;;;23.32;61.28
6532;BME280;3299;42.004;24.868;2023-05-24T08:36:25;98036.78;;;23.50;61.47
6532;BME280;3299;42.004;24.868;2023-05-24T08:38:51;98012.03;;;23.23;60.57
6532;BME280;3299;42.004;24.868;2023-05-24T08:41:16;98050.81;;;23.57;61.56
6532;BME280;3299;42.004;24.868;2023-05-24T08:43:42;98027.66;;;23.52;60.96
6532;BME280;3299;42.004;24.868;2023-05-24T08:46:09;97981.97;;;23.24;60.41
6532;BME280;3299;42.004;24.868;2023-05-24T08:48:43;97990.97;;;23.30;60.52
6532;BME280;3299;42.004;24.868;2023-05-24T08:51:09;98003.53;;;23.28;60.75
6532;BME280;3299;42.004;24.868;2023-05-24T08:53:36;97993.38;;;23.31;61.27
6532;BME280;3299;42.004;24.868;2023-05-24T08:56:03;98053.75;;;23.74;58.75
6532;BME280;3299;42.004;24.868;2023-05-24T08:58:29;98025.47;;;23.62;58.58
6532;BME280;3299;42.004;24.868;2023-05-24T09:00:55;98051.22;;;23.88;56.25
6532;BME280;3299;42.004;24.868;2023-05-24T09:03:22;97995.78;;;23.60;55.46
6532;BME280;3299;42.004;24.868;2023-05-24T09:05:48;97996.84;;;23.66;55.47
6532;BME280;3299;42.004;24.868;2023-05-24T09:08:14;98037.22;;;23.94;54.15
6532;BME280;3299;42.004;24.868;2023-05-24T09:10:42;98062.91;;;24.19;53.32
6532;BME280;3299;42.004;24.868;2023-05-24T09:13:09;98071.28;;;24.29;50.33
6532;BME280;3299;42.004;24.868;2023-05-24T09:15:35;98066.63;;;24.37;49.59
6532;BME280;3299;42.004;24.868;2023-05-24T09:18:00;98047.09;;;24.25;49.61
6532;BME280;3299;42.004;24.868;2023-05-24T09:20:26;98001.69;;;24.09;52.52
6532;BME280;3299;42.004;24.868;2023-05-24T09:22:51;98034.28;;;24.35;51.84
6532;BME280;3299;42.004;24.868;2023-05-24T09:25:18;98069.56;;;24.62;51.94
6532;BME280;3299;42.004;24.868;2023-05-24T09:27:51;98030.84;;;24.48;52.26
6532;BME280;3299;42.004;24.868;2023-05-24T09:30:18;98030.66;;;24.56;51.73
6532;BME280;3299;42.004;24.868;2023-05-24T09:32:54;98061.25;;;24.71;48.07
6532;BME280;3299;42.004;24.868;2023-05-24T09:35:20;98040.63;;;24.54;46.78
6532;BME280;3299;42.004;24.868;2023-05-24T09:37:45;98013.38;;;24.53;47.49
6532;BME280;3299;42.004;24.868;2023-05-24T09:40:18;97999.53;;;24.51;46.83
6532;BME280;3299;42.004;24.868;2023-05-24T09:42:45;98033.97;;;24.64;47.50
6532;BME280;3299;42.004;24.868;2023-05-24T09:45:10;98027.22;;;24.68;47.61
6532;BME280;3299;42.004;24.868;2023-05-24T09:47:39;98068.59;;;24.95;46.24
6532;BME280;3299;42.004;24.868;2023-05-24T09:50:11;98042.28;;;24.61;46.91
6532;BME280;3299;42.004;24.868;2023-05-24T09:52:37;98061.84;;;24.73;47.76
6532;BME280;3299;42.004;24.868;2023-05-24T09:55:17;98031.50;;;24.63;49.35
6532;BME280;3299;42.004;24.868;2023-05-24T09:57:43;98067.16;;;24.99;49.17
6532;BME280;3299;42.004;24.868;2023-05-24T10:00:10;98016.66;;;24.81;47.87
6532;BME280;3299;42.004;24.868;2023-05-24T10:02:44;98005.25;;;24.87;47.72
6532;BME280;3299;42.004;24.868;2023-05-24T10:05:10;98027.81;;;25.09;46.49
6532;BME280;3299;42.004;24.868;2023-05-24T10:07:36;98017.88;;;25.11;47.44
6532;BME280;3299;42.004;24.868;2023-05-24T10:10:03;98033.13;;;25.22;46.81
6532;BME280;3299;42.004;24.868;2023-05-24T10:12:29;98019.50;;;25.19;46.72
6532;BME280;3299;42.004;24.868;2023-05-24T10:14:56;97985.28;;;25.04;46.50
6532;BME280;3299;42.004;24.868;2023-05-24T10:17:23;98040.25;;;25.41;46.35
6532;BME280;3299;42.004;24.868;2023-05-24T10:19:52;98033.72;;;25.50;45.92
6532;BME280;3299;42.004;24.868;2023-05-24T10:22:19;98019.41;;;25.58;45.69
6532;BME280;3299;42.004;24.868;2023-05-24T10:24:49;98000.66;;;25.66;45.69
6532;BME280;3299;42.004;24.868;2023-05-24T10:27:21;97992.44;;;25.80;45.79
6532;BME280;3299;42.004;24.868;2023-05-24T10:29:49;98055.03;;;26.32;43.68
6532;BME280;3299;42.004;24.868;2023-05-24T10:32:19;98056.63;;;26.39;44.14
6532;BME280;3299;42.004;24.868;2023-05-24T10:34:47;97991.09;;;26.09;45.16
6532;BME280;3299;42.004;24.868;2023-05-24T10:37:16;98024.41;;;26.36;44.55
6532;BME280;3299;42.004;24.868;2023-05-24T10:39:42;97994.47;;;26.22;43.53
6532;BME280;3299;42.004;24.868;2023-05-24T10:42:07;98022.41;;;26.62;42.88
6532;BME280;3299;42.004;24.868;2023-05-24T10:44:33;97977.41;;;26.43;42.81
6532;BME280;3299;42.004;24.868;2023-05-24T10:49:35;98029.91;;;26.72;42.07
6532;BME280;3299;42.004;24.868;2023-05-24T10:52:11;97994.19;;;26.68;41.29
6532;BME280;3299;42.004;24.868;2023-05-24T10:54:37;98029.09;;;27.20;41.05
6532;BME280;3299;42.004;24.868;2023-05-24T10:57:03;98021.94;;;27.39;40.82
6532;BME280;3299;42.004;24.868;2023-05-24T10:59:35;97947.44;;;27.09;41.92
6532;BME280;3299;42.004;24.868;2023-05-24T11:02:07;98025.66;;;27.74;41.77
6532;BME280;3299;42.004;24.868;2023-05-24T11:04:42;97988.53;;;27.49;41.79
6532;BME280;3299;42.004;24.868;2023-05-24T11:07:12;97975.66;;;27.28;41.22
6532;BME280;3299;42.004;24.868;2023-05-24T11:09:39;97970.47;;;27.15;39.82
6532;BME280;3299;42.004;24.868;2023-05-24T11:12:14;98019.53;;;27.37;40.67
6532;BME280;3299;42.004;24.868;2023-05-24T11:14:46;98004.91;;;27.04;41.00
6532;BME280;3299;42.004;24.868;2023-05-24T11:17:12;98003.41;;;26.90;41.65
6532;BME280;3299;42.004;24.868;2023-05-24T11:19:53;98005.88;;;26.60;40.86
6532;BME280;3299;42.004;24.868;2023-05-24T11:22:21;98017.69;;;26.64;42.49
6532;BME280;3299;42.004;24.868;2023-05-24T11:24:47;98003.88;;;26.56;42.28
6532;BME280;3299;42.004;24.868;2023-05-24T11:27:13;97945.69;;;26.23;42.21
6532;BME280;3299;42.004;24.868;2023-05-24T11:29:43;97972.97;;;26.37;41.89
6532;BME280;3299;42.004;24.868;2023-05-24T11:32:13;97948.38;;;26.17;42.60
6532;BME280;3299;42.004;24.868;2023-05-24T11:34:39;98016.94;;;26.57;43.24
6532;BME280;3299;42.004;24.868;2023-05-24T11:37:05;97938.78;;;26.22;44.28
6532;BME280;3299;42.004;24.868;2023-05-24T11:39:31;97965.97;;;26.42;44.59
6532;BME280;3299;42.004;24.868;2023-05-24T11:41:58;97976.34;;;26.50;42.74
6532;BME280;3299;42.004;24.868;2023-05-24T11:44:24;97978.53;;;26.84;41.47
6532;BME280;3299;42.004;24.868;2023-05-24T11:46:59;98000.69;;;27.21;39.73
6532;BME280;3299;42.004;24.868;2023-05-24T11:49:25;97947.38;;;27.16;40.64
6532;BME280;3299;42.004;24.868;2023-05-24T11:51:53;97946.22;;;27.48;39.76
6532;BME280;3299;42.004;24.868;2023-05-24T11:54:20;97972.78;;;27.84;37.92
6532;BME280;3299;42.004;24.868;2023-05-24T11:56:46;97976.94;;;28.09;38.95
6532;BME280;3299;42.004;24.868;2023-05-24T11:59:23;97949.53;;;27.61;37.90
6532;BME280;3299;42.004;24.868;2023-05-24T12:01:56;97924.59;;;27.26;38.96
6532;BME280;3299;42.004;24.868;2023-05-24T12:04:22;97952.47;;;27.53;39.26
6532;BME280;3299;42.004;24.868;2023-05-24T12:06:48;97954.09;;;27.90;40.38
6532;BME280;3299;42.004;24.868;2023-05-24T12:09:13;97928.63;;;28.12;38.01
6532;BME280;3299;42.004;24.868;2023-05-24T12:11:40;97974.84;;;28.82;37.28
6532;BME280;3299;42.004;24.868;2023-05-24T12:14:27;97988.91;;;29.23;37.12
6532;BME280;3299;42.004;24.868;2023-05-24T12:16:55;97937.53;;;29.16;35.36
6532;BME280;3299;42.004;24.868;2023-05-24T12:19:22;97960.56;;;29.57;34.09
6532;BME280;3299;42.004;24.868;2023-05-24T12:21:57;97948.91;;;29.74;34.80
6532;BME280;3299;42.004;24.868;2023-05-24T12:24:24;97979.81;;;29.98;34.50
6532;BME280;3299;42.004;24.868;2023-05-24T12:26:50;97981.19;;;30.01;34.61
6532;BME280;3299;42.004;24.868;2023-05-24T12:29:16;97936.94;;;29.88;34.09
6532;BME280;3299;42.004;24.868;2023-05-24T12:31:47;97900.19;;;29.79;34.72
6532;BME280;3299;42.004;24.868;2023-05-24T12:34:23;97970.19;;;30.25;34.83
6532;BME280;3299;42.004;24.868;2023-05-24T12:36:48;97960.81;;;30.23;34.42
6532;BME280;3299;42.004;24.868;2023-05-24T12:39:20;97976.06;;;30.55;34.20
6532;BME280;3299;42.004;24.868;2023-05-24T12:41:53;97899.94;;;30.08;34.79
6532;BME280;3299;42.004;24.868;2023-05-24T12:44:26;97965.69;;;30.59;34.78
6532;BME280;3299;42.004;24.868;2023-05-24T12:46:53;97939.94;;;30.20;34.34
6532;BME280;3299;42.004;24.868;2023-05-24T12:49:19;97893.72;;;29.75;35.44
6532;BME280;3299;42.004;24.868;2023-05-24T12:51:45;97968.66;;;30.01;35.16
6532;BME280;3299;42.004;24.868;2023-05-24T12:54:10;97922.47;;;29.22;35.38
6532;BME280;3299;42.004;24.868;2023-05-24T12:56:35;97958.38;;;29.42;35.64
6532;BME280;3299;42.004;24.868;2023-05-24T12:59:02;97974.25;;;29.49;36.67
6532;BME280;3299;42.004;24.868;2023-05-24T13:01:28;97922.72;;;28.97;35.64
6532;BME280;3299;42.004;24.868;2023-05-24T13:03:54;97963.59;;;29.60;35.32
6532;BME280;3299;42.004;24.868;2023-05-24T13:06:19;97897.34;;;28.83;35.87
6532;BME280;3299;42.004;24.868;2023-05-24T13:08:44;97950.19;;;29.21;36.49
6532;BME280;3299;42.004;24.868;2023-05-24T13:11:10;97941.94;;;29.22;37.50
6532;BME280;3299;42.004;24.868;2023-05-24T13:13:35;97955.06;;;29.12;36.59
6532;BME280;3299;42.004;24.868;2023-05-24T13:16:02;97925.25;;;28.92;37.25
6532;BME280;3299;42.004;24.868;2023-05-24T13:18:29;97914.59;;;29.15;37.35
6532;BME280;3299;42.004;24.868;2023-05-24T13:20:55;97917.03;;;28.94;36.88
6532;BME280;3299;42.004;24.868;2023-05-24T13:23:21;97973.13;;;29.22;37.18